Time;durP1;ratioP1;P1;durP2;ratioP2;P2;SDS_P1;SDS_P2;PMS_P1;PMS_P2;Temp;Humidity;BMP_temperature;BMP_pressure;BME280_temperature;BME280_humidity;BME280_pressure;Samples;Min_cycle;Max_cycle;Signal;HPM_P1;HPM_P2
2023/12/21 00:00:17;;;;;;;1.53;0.67;;;;;;;5.44;100.00;97873.16;5075702;28;20232;-72
2023/12/21 00:02:44;;;;;;;0.83;0.70;;;;;;;5.42;100.00;97875.16;5075563;28;20230;-72
2023/12/21 00:05:10;;;;;;;0.60;0.43;;;;;;;5.47;100.00;97870.13;5075598;28;20200;-71
2023/12/21 00:07:37;;;;;;;1.00;0.60;;;;;;;5.49;100.00;97868.94;5075220;28;20209;-72
2023/12/21 00:10:03;;;;;;;1.53;0.57;;;;;;;5.50;100.00;97864.47;5075154;28;20229;-71
2023/12/21 00:12:30;;;;;;;2.40;0.60;;;;;;;5.50;100.00;97865.28;5076598;28;20283;-71
2023/12/21 00:14:56;;;;;;;0.87;0.60;;;;;;;5.51;100.00;97855.53;5075130;28;20689;-71
2023/12/21 00:17:22;;;;;;;0.70;0.60;;;;;;;5.49;100.00;97852.28;5075094;28;20213;-71
2023/12/21 00:19:48;;;;;;;1.40;0.70;;;;;;;5.43;100.00;97848.59;5075140;28;20225;-71
2023/12/21 00:22:15;;;;;;;1.27;0.73;;;;;;;5.41;100.00;97842.72;5075280;28;20221;-72
2023/12/21 00:24:41;;;;;;;1.27;0.70;;;;;;;5.44;100.00;97838.88;5075314;28;20205;-71
2023/12/21 00:27:07;;;;;;;0.97;0.60;;;;;;;5.41;100.00;97839.25;5075933;28;20207;-72
2023/12/21 00:29:34;;;;;;;0.50;0.50;;;;;;;5.43;100.00;97839.88;5075073;28;20225;-72
2023/12/21 00:32:00;;;;;;;0.40;0.40;;;;;;;5.42;100.00;97835.63;5075067;28;20274;-72
2023/12/21 00:34:27;;;;;;;0.70;0.50;;;;;;;5.43;100.00;97827.50;5075193;28;20208;-72
2023/12/21 00:36:53;;;;;;;0.50;0.40;;;;;;;5.44;100.00;97830.97;5074704;28;20550;-72
2023/12/21 00:39:19;;;;;;;0.47;0.47;;;;;;;5.43;100.00;97840.69;5074490;28;20589;-72
2023/12/21 00:41:46;;;;;;;1.40;0.50;;;;;;;5.49;100.00;97831.19;5073903;28;20565;-72
2023/12/21 00:44:12;;;;;;;1.23;0.40;;;;;;;5.49;100.00;97832.03;5074523;28;20803;-72
2023/12/21 00:46:39;;;;;;;1.37;0.53;;;;;;;5.47;100.00;97836.66;5074720;28;20204;-72
2023/12/21 00:49:04;;;;;;;0.43;0.40;;;;;;;5.46;100.00;97832.41;5074313;28;20235;-72
2023/12/21 00:51:30;;;;;;;1.23;0.40;;;;;;;5.49;100.00;97829.38;5074406;28;20205;-72
2023/12/21 00:53:57;;;;;;;0.43;0.40;;;;;;;5.50;100.00;97831.00;5074682;28;20201;-72
2023/12/21 00:56:23;;;;;;;0.53;0.30;;;;;;;5.57;100.00;97833.69;5074295;28;20298;-72
2023/12/21 00:58:49;;;;;;;0.37;0.30;;;;;;;5.50;100.00;97817.84;5074201;28;20208;-72
2023/12/21 01:01:16;;;;;;;0.30;0.20;;;;;;;5.49;100.00;97820.66;5074533;28;20204;-72
2023/12/21 01:03:42;;;;;;;0.30;0.30;;;;;;;5.51;100.00;97813.34;5074436;28;20220;-71
2023/12/21 01:06:08;;;;;;;0.30;0.30;;;;;;;5.50;100.00;97814.38;5074257;28;20204;-71
2023/12/21 01:08:35;;;;;;;1.10;0.30;;;;;;;5.53;100.00;97814.81;5074275;28;20205;-72
2023/12/21 01:11:01;;;;;;;0.20;0.20;;;;;;;5.54;100.00;97813.81;5074206;28;20232;-72
2023/12/21 01:13:28;;;;;;;0.50;0.50;;;;;;;5.56;100.00;97806.50;5074176;28;20231;-72
2023/12/21 01:15:54;;;;;;;0.40;0.20;;;;;;;5.47;100.00;97807.66;5074269;28;20211;-72
2023/12/21 01:18:20;;;;;;;0.30;0.30;;;;;;;5.51;100.00;97793.09;5074174;28;20207;-72
2023/12/21 01:20:47;;;;;;;0.33;0.33;;;;;;;5.53;100.00;97785.00;5073758;28;20228;-71
2023/12/21 01:23:13;;;;;;;1.10;0.30;;;;;;;5.51;100.00;97773.81;5073768;28;20224;-71
2023/12/21 01:25:39;;;;;;;1.53;0.40;;;;;;;5.53;100.00;97766.53;5074156;28;20205;-72
2023/12/21 01:28:06;;;;;;;0.40;0.40;;;;;;;5.57;100.00;97773.84;5073725;28;20216;-72
2023/12/21 01:30:32;;;;;;;0.63;0.40;;;;;;;5.55;100.00;97777.69;5073951;28;20229;-71
2023/12/21 01:32:58;;;;;;;1.23;0.40;;;;;;;5.59;100.00;97786.84;5074053;28;20295;-72
2023/12/21 01:35:25;;;;;;;0.37;0.37;;;;;;;5.59;100.00;97768.38;5073931;28;20210;-72
2023/12/21 01:37:51;;;;;;;0.97;0.40;;;;;;;5.57;100.00;97778.31;5073944;28;20207;-72
2023/12/21 01:40:17;;;;;;;0.30;0.30;;;;;;;5.60;100.00;97776.09;5073774;28;20227;-72
2023/12/21 01:42:44;;;;;;;0.60;0.30;;;;;;;5.61;100.00;97769.03;5073763;28;20231;-72
2023/12/21 01:45:10;;;;;;;0.30;0.30;;;;;;;5.63;100.00;97770.47;5073856;28;20205;-72
2023/12/21 01:47:37;;;;;;;0.53;0.40;;;;;;;5.60;100.00;97770.00;5073596;28;20228;-71
2023/12/21 01:50:04;;;;;;;0.40;0.40;;;;;;;5.65;100.00;97751.81;5073764;28;20587;-72
2023/12/21 01:52:31;;;;;;;0.80;0.40;;;;;;;5.69;100.00;97753.84;5073524;28;20200;-71
2023/12/21 01:54:57;;;;;;;0.20;0.20;;;;;;;5.75;100.00;97745.13;5073705;28;20299;-71
2023/12/21 01:57:24;;;;;;;0.77;0.30;;;;;;;5.75;100.00;97733.78;5073661;28;20232;-72
2023/12/21 01:59:51;;;;;;;0.40;0.30;;;;;;;5.74;100.00;97737.44;5073219;28;20712;-71
2023/12/21 02:02:17;;;;;;;0.77;0.40;;;;;;;5.70;100.00;97712.47;5073542;28;20224;-72
2023/12/21 02:04:45;;;;;;;0.47;0.40;;;;;;;5.77;100.00;97710.66;5073638;28;20211;-72
2023/12/21 02:07:11;;;;;;;0.50;0.40;;;;;;;5.80;100.00;97715.56;5073286;28;20205;-71
2023/12/21 02:09:37;;;;;;;0.20;0.20;;;;;;;5.79;100.00;97713.94;5073434;28;20230;-71
2023/12/21 02:12:04;;;;;;;0.20;0.20;;;;;;;5.81;100.00;97714.56;5073532;28;20208;-72
2023/12/21 02:14:31;;;;;;;0.30;0.30;;;;;;;5.86;100.00;97698.97;5073218;28;20785;-72
2023/12/21 02:17:09;;;;;;;0.23;0.23;;;;;;;5.86;100.00;97699.78;5073405;28;20207;-71
2023/12/21 02:19:36;;;;;;;0.47;0.20;;;;;;;5.90;100.00;97698.38;5072958;28;20725;-71
2023/12/21 02:22:04;;;;;;;0.57;0.30;;;;;;;5.92;100.00;97698.97;5072988;28;20204;-71
2023/12/21 02:24:31;;;;;;;1.23;0.30;;;;;;;5.90;100.00;97701.00;5073165;28;20211;-71
2023/12/21 02:26:58;;;;;;;0.20;0.20;;;;;;;5.84;100.00;97693.06;5074173;28;20548;-71
2023/12/21 02:29:24;;;;;;;0.57;0.20;;;;;;;5.88;100.00;97679.28;5073244;28;20226;-72
2023/12/21 02:31:50;;;;;;;0.20;0.20;;;;;;;5.83;100.00;97670.34;5073302;28;20206;-72
2023/12/21 02:34:17;;;;;;;0.30;0.30;;;;;;;5.82;100.00;97660.78;5073355;28;20197;-71
2023/12/21 02:36:43;;;;;;;0.43;0.30;;;;;;;5.82;100.00;97653.72;5073249;28;20287;-72
2023/12/21 02:39:10;;;;;;;0.30;0.30;;;;;;;5.87;100.00;97655.72;5073156;28;20670;-72
2023/12/21 02:41:36;;;;;;;0.40;0.30;;;;;;;5.86;100.00;97649.66;5073202;28;20204;-72
2023/12/21 02:44:02;;;;;;;0.87;0.30;;;;;;;5.91;100.00;97649.06;5073088;28;20234;-71
2023/12/21 02:46:29;;;;;;;0.10;0.10;;;;;;;5.87;100.00;97656.56;5073179;28;20591;-71
2023/12/21 02:48:55;;;;;;;0.37;0.23;;;;;;;5.99;100.00;97643.59;5072672;28;20591;-71
2023/12/21 02:51:21;;;;;;;0.30;0.20;;;;;;;5.98;100.00;97636.69;5072718;28;20565;-71
2023/12/21 02:53:48;;;;;;;0.73;0.30;;;;;;;5.93;100.00;97636.50;5073588;28;20204;-71
2023/12/21 02:56:14;;;;;;;0.23;0.20;;;;;;;5.98;100.00;97631.44;5072875;28;20566;-71
2023/12/21 02:58:41;;;;;;;0.33;0.20;;;;;;;5.97;100.00;97612.13;5072843;28;20200;-72
2023/12/21 03:01:07;;;;;;;0.30;0.20;;;;;;;5.94;100.00;97609.91;5072677;28;20668;-71
2023/12/21 03:03:34;;;;;;;0.10;0.10;;;;;;;5.99;100.00;97606.66;5072925;28;20236;-71
2023/12/21 03:06:00;;;;;;;2.07;0.30;;;;;;;5.99;100.00;97596.94;5076220;28;20212;-71
2023/12/21 03:08:26;;;;;;;0.10;0.10;;;;;;;5.98;100.00;97574.19;5076712;28;20200;-72
2023/12/21 03:10:53;;;;;;;0.27;0.27;;;;;;;6.01;100.00;97581.69;5076625;28;20335;-72
2023/12/21 03:13:19;;;;;;;0.20;0.20;;;;;;;6.04;100.00;97589.22;5076569;28;20200;-72
2023/12/21 03:15:45;;;;;;;0.30;0.30;;;;;;;6.01;100.00;97600.16;5076266;28;20691;-72
2023/12/21 03:18:12;;;;;;;0.20;0.20;;;;;;;6.05;100.00;97592.66;5076505;28;20573;-72
2023/12/21 03:20:38;;;;;;;0.27;0.20;;;;;;;6.05;100.00;97600.56;5076122;28;20719;-72
2023/12/21 03:23:05;;;;;;;0.20;0.20;;;;;;;6.04;100.00;97593.66;5076120;28;20310;-72
2023/12/21 03:25:31;;;;;;;0.10;0.10;;;;;;;6.01;100.00;97579.06;5076298;28;20574;-72
2023/12/21 03:27:58;;;;;;;0.20;0.20;;;;;;;6.04;100.00;97581.31;5076218;28;20205;-72
2023/12/21 03:30:24;;;;;;;0.20;0.20;;;;;;;5.99;100.00;97582.91;5075696;28;20699;-72
2023/12/21 03:32:51;;;;;;;0.47;0.30;;;;;;;5.97;100.00;97571.75;5075818;28;20205;-72
2023/12/21 03:35:17;;;;;;;0.93;0.30;;;;;;;5.92;100.00;97580.25;5076115;28;20205;-72
2023/12/21 03:37:44;;;;;;;0.20;0.20;;;;;;;5.91;100.00;97569.91;5075784;28;20212;-72
2023/12/21 03:40:10;;;;;;;0.40;0.30;;;;;;;6.00;100.00;97571.34;5075872;28;20351;-72
2023/12/21 03:42:36;;;;;;;0.20;0.20;;;;;;;5.96;100.00;97567.47;5075742;28;20215;-72
2023/12/21 03:45:03;;;;;;;0.33;0.20;;;;;;;5.98;100.00;97574.19;5075772;28;20223;-72
2023/12/21 03:47:30;;;;;;;0.27;0.27;;;;;;;6.09;100.00;97559.56;5075502;28;20693;-72
2023/12/21 03:49:56;;;;;;;0.20;0.20;;;;;;;6.05;100.00;97568.91;5075801;28;20225;-72
2023/12/21 03:52:22;;;;;;;0.20;0.20;;;;;;;6.02;100.00;97585.94;5075834;28;20209;-72
2023/12/21 03:54:49;;;;;;;0.13;0.13;;;;;;;6.03;100.00;97590.25;5075532;28;20725;-72
2023/12/21 03:57:15;;;;;;;0.20;0.20;;;;;;;6.01;100.00;97567.72;5075533;28;20668;-72
2023/12/21 03:59:44;;;;;;;0.20;0.20;;;;;;;5.98;100.00;97557.56;5075324;28;20734;-72
2023/12/21 04:02:11;;;;;;;0.20;0.20;;;;;;;5.99;100.00;97548.63;5075591;28;20201;-72
2023/12/21 04:04:37;;;;;;;0.20;0.20;;;;;;;5.98;100.00;97552.28;5075488;28;20273;-72
2023/12/21 04:07:04;;;;;;;0.20;0.20;;;;;;;6.03;100.00;97552.47;5075316;28;20671;-72
2023/12/21 04:09:30;;;;;;;0.17;0.17;;;;;;;6.07;100.00;97557.13;5076096;28;20224;-72
2023/12/21 04:11:56;;;;;;;0.10;0.10;;;;;;;6.07;100.00;97549.22;5075454;28;20209;-72
2023/12/21 04:14:23;;;;;;;0.10;0.10;;;;;;;6.01;100.00;97541.31;5074897;28;20668;-72
2023/12/21 04:16:50;;;;;;;0.30;0.20;;;;;;;6.01;100.00;97538.69;5074831;28;20216;-72
2023/12/21 04:19:17;;;;;;;0.20;0.20;;;;;;;5.92;100.00;97534.63;5075170;28;20225;-72
2023/12/21 04:21:43;;;;;;;0.30;0.20;;;;;;;5.89;100.00;97529.75;5075245;28;20200;-72
2023/12/21 04:24:10;;;;;;;0.23;0.20;;;;;;;5.91;100.00;97530.34;5074749;28;20711;-72
2023/12/21 04:26:36;;;;;;;0.40;0.30;;;;;;;5.89;100.00;97529.75;5074801;28;20205;-72
2023/12/21 04:29:02;;;;;;;0.10;0.10;;;;;;;5.83;100.00;97515.53;5074784;28;20715;-72
2023/12/21 04:31:29;;;;;;;0.20;0.20;;;;;;;5.83;100.00;97517.38;5075073;28;20211;-72
2023/12/21 04:33:55;;;;;;;0.20;0.20;;;;;;;5.86;100.00;97515.13;5074562;28;20201;-72
2023/12/21 04:36:21;;;;;;;0.20;0.17;;;;;;;5.81;100.00;97514.09;5074325;28;20226;-72
2023/12/21 04:38:48;;;;;;;0.20;0.20;;;;;;;5.87;100.00;97510.66;5074335;28;20683;-72
2023/12/21 04:41:14;;;;;;;0.20;0.20;;;;;;;5.85;100.00;97512.69;5074387;28;20212;-72
2023/12/21 04:43:40;;;;;;;0.20;0.20;;;;;;;5.78;100.00;97507.38;5074320;28;20582;-72
2023/12/21 04:46:07;;;;;;;0.10;0.10;;;;;;;5.81;100.00;97498.28;5074763;28;20596;-72
2023/12/21 04:48:33;;;;;;;0.20;0.20;;;;;;;5.85;100.00;97494.22;5074219;28;20671;-72
2023/12/21 04:51:00;;;;;;;0.63;0.30;;;;;;;5.84;100.00;97487.34;5074449;28;20231;-72
2023/12/21 04:53:27;;;;;;;0.10;0.10;;;;;;;5.85;100.00;97494.22;5074148;28;20667;-72
2023/12/21 04:55:53;;;;;;;0.20;0.20;;;;;;;5.87;100.00;97497.47;5074361;28;20213;-72
2023/12/21 04:58:19;;;;;;;0.20;0.20;;;;;;;5.90;100.00;97497.06;5074490;28;20230;-72
2023/12/21 05:00:50;;;;;;;0.20;0.20;;;;;;;5.93;100.00;97478.22;5073949;28;20737;-72
2023/12/21 05:03:19;;;;;;;0.30;0.30;;;;;;;5.91;100.00;97481.03;5074199;28;20209;-72
2023/12/21 05:05:46;;;;;;;0.30;0.30;;;;;;;5.94;100.00;97450.81;5074137;28;20209;-72
2023/12/21 05:08:13;;;;;;;0.20;0.20;;;;;;;5.98;100.00;97442.25;5074045;28;20265;-72
2023/12/21 05:10:40;;;;;;;0.10;0.10;;;;;;;6.02;100.00;97447.97;5073868;28;20220;-72
2023/12/21 05:13:06;;;;;;;0.20;0.20;;;;;;;6.09;100.00;97456.66;5073714;28;20686;-72
2023/12/21 05:15:33;;;;;;;0.60;0.20;;;;;;;6.11;100.00;97466.00;5073650;28;20687;-72
2023/12/21 05:18:00;;;;;;;0.30;0.30;;;;;;;6.14;100.00;97473.50;5074038;28;20211;-72
2023/12/21 05:20:26;;;;;;;0.33;0.20;;;;;;;6.14;100.00;97475.31;5074121;28;20580;-72
2023/12/21 05:22:52;;;;;;;0.93;0.20;;;;;;;6.14;100.00;97462.13;5073335;28;20568;-72
2023/12/21 05:25:19;;;;;;;0.67;0.23;;;;;;;6.11;100.00;97470.47;5073340;28;20660;-72
2023/12/21 05:27:45;;;;;;;0.30;0.30;;;;;;;6.09;100.00;97459.31;5073353;28;20246;-72
2023/12/21 05:30:12;;;;;;;0.20;0.20;;;;;;;6.14;100.00;97455.03;5073548;28;20695;-72
2023/12/21 05:32:38;;;;;;;0.10;0.10;;;;;;;6.14;100.00;97447.13;5073760;28;20204;-72
2023/12/21 05:35:05;;;;;;;0.20;0.20;;;;;;;6.14;100.00;97441.03;5073149;28;20291;-72
2023/12/21 05:37:31;;;;;;;0.27;0.20;;;;;;;6.14;100.00;97449.75;5073715;28;20200;-72
2023/12/21 05:39:58;;;;;;;0.20;0.20;;;;;;;6.16;100.00;97431.09;5073451;28;20221;-72
2023/12/21 05:42:24;;;;;;;0.23;0.23;;;;;;;6.14;100.00;97426.00;5073409;28;20276;-72
2023/12/21 05:44:50;;;;;;;1.00;0.20;;;;;;;6.11;100.00;97423.78;5073198;28;20231;-72
2023/12/21 05:47:17;;;;;;;0.93;0.20;;;;;;;6.17;100.00;97424.78;5073147;28;20205;-72
2023/12/21 05:49:43;;;;;;;0.20;0.20;;;;;;;6.21;100.00;97407.53;5073467;28;20228;-72
2023/12/21 05:52:09;;;;;;;1.00;0.20;;;;;;;6.24;100.00;97429.03;5073172;28;20570;-72
2023/12/21 05:54:36;;;;;;;0.20;0.20;;;;;;;6.26;100.00;97423.56;5073484;28;20201;-72
2023/12/21 05:57:02;;;;;;;0.20;0.20;;;;;;;6.24;100.00;97415.84;5072754;28;20686;-72
2023/12/21 05:59:28;;;;;;;0.40;0.30;;;;;;;6.27;100.00;97422.53;5072861;28;20631;-72
2023/12/21 06:01:55;;;;;;;0.10;0.10;;;;;;;6.25;100.00;97400.81;5072757;28;20675;-72
2023/12/21 06:04:21;;;;;;;0.30;0.20;;;;;;;6.23;100.00;97406.31;5072721;28;20230;-72
2023/12/21 06:06:48;;;;;;;0.33;0.27;;;;;;;6.23;100.00;97400.19;5072770;28;20215;-72
2023/12/21 06:09:15;;;;;;;1.10;0.30;;;;;;;6.20;100.00;97398.78;5072938;28;20300;-72
2023/12/21 06:11:42;;;;;;;0.30;0.30;;;;;;;6.27;100.00;97398.78;5072942;28;20215;-72
2023/12/21 06:14:08;;;;;;;0.27;0.20;;;;;;;6.23;100.00;97371.16;5072590;28;20284;-73
2023/12/21 06:16:34;;;;;;;0.23;0.20;;;;;;;6.26;100.00;97391.88;5073054;28;20228;-72
2023/12/21 06:19:03;;;;;;;0.20;0.20;;;;;;;6.24;100.00;97392.09;5072832;28;20220;-72
2023/12/21 06:21:29;;;;;;;1.37;0.30;;;;;;;6.23;100.00;97387.00;5073307;28;20204;-72
2023/12/21 06:23:55;;;;;;;0.20;0.20;;;;;;;6.27;100.00;97369.75;5072761;28;20225;-72
2023/12/21 06:26:22;;;;;;;0.30;0.30;;;;;;;6.24;100.00;97363.06;5072993;28;20204;-72
2023/12/21 06:28:48;;;;;;;0.20;0.20;;;;;;;6.26;100.00;97354.94;5072877;28;20207;-72
2023/12/21 06:31:16;;;;;;;0.33;0.27;;;;;;;6.30;100.00;97343.75;5073021;28;20231;-72
2023/12/21 06:33:43;;;;;;;0.77;0.33;;;;;;;6.29;100.00;97350.03;5072776;28;20201;-72
2023/12/21 06:36:09;;;;;;;2.27;0.33;;;;;;;6.30;100.00;97335.03;5072963;28;20219;-72
2023/12/21 06:38:36;;;;;;;0.30;0.30;;;;;;;6.34;100.00;97325.66;5072103;28;20219;-72
2023/12/21 06:41:02;;;;;;;0.20;0.20;;;;;;;6.42;100.00;97326.22;5076029;28;20729;-72
2023/12/21 06:43:28;;;;;;;0.20;0.20;;;;;;;6.42;100.00;97328.06;5075856;28;20236;-72
2023/12/21 06:45:55;;;;;;;0.20;0.20;;;;;;;6.41;100.00;97331.72;5076639;28;20208;-72
2023/12/21 06:48:22;;;;;;;0.30;0.30;;;;;;;6.47;100.00;97330.88;5076352;28;20220;-71
2023/12/21 06:50:48;;;;;;;0.13;0.13;;;;;;;6.51;100.00;97321.53;5076544;28;20235;-72
2023/12/21 06:53:15;;;;;;;0.30;0.20;;;;;;;6.51;100.00;97319.69;5076809;28;20212;-72
2023/12/21 06:55:45;;;;;;;0.20;0.20;;;;;;;6.54;100.00;97323.72;5077193;28;20247;-72
2023/12/21 06:58:12;;;;;;;0.23;0.20;;;;;;;6.52;100.00;97309.94;5077231;28;20559;-71
2023/12/21 07:00:38;;;;;;;0.30;0.23;;;;;;;6.58;100.00;97328.38;5076169;28;20226;-71
2023/12/21 07:03:04;;;;;;;0.23;0.23;;;;;;;6.57;100.00;97323.31;5075892;28;20208;-72
2023/12/21 07:05:31;;;;;;;0.20;0.20;;;;;;;6.61;100.00;97311.31;5076238;28;20229;-72
2023/12/21 07:07:58;;;;;;;0.30;0.30;;;;;;;6.64;100.00;97311.69;5076157;28;20200;-72
2023/12/21 07:10:24;;;;;;;0.20;0.20;;;;;;;6.65;100.00;97315.16;5076052;28;20251;-72
2023/12/21 07:12:50;;;;;;;0.20;0.20;;;;;;;6.65;100.00;97313.31;5075755;28;20667;-71
2023/12/21 07:15:17;;;;;;;0.30;0.20;;;;;;;6.67;100.00;97311.28;5075644;28;20667;-72
2023/12/21 07:17:43;;;;;;;0.33;0.30;;;;;;;6.66;100.00;97304.34;5076252;28;20578;-72
2023/12/21 07:20:10;;;;;;;0.43;0.30;;;;;;;6.69;100.00;97296.00;5075718;28;20723;-72
2023/12/21 07:22:36;;;;;;;0.23;0.23;;;;;;;6.70;100.00;97289.69;5075763;28;20681;-72
2023/12/21 07:25:03;;;;;;;1.17;0.20;;;;;;;6.77;100.00;97284.38;5076295;28;20220;-72
2023/12/21 07:27:29;;;;;;;0.33;0.20;;;;;;;6.74;100.00;97288.25;5075760;28;20671;-72
2023/12/21 07:29:56;;;;;;;0.20;0.20;;;;;;;6.76;100.00;97303.91;5075490;28;20229;-72
2023/12/21 07:32:22;;;;;;;0.30;0.30;;;;;;;6.75;100.00;97286.44;5075361;28;20216;-72
2023/12/21 07:34:48;;;;;;;0.20;0.20;;;;;;;6.73;100.00;97269.97;5075780;28;20196;-72
2023/12/21 07:37:16;;;;;;;0.20;0.20;;;;;;;6.74;100.00;97279.53;5075441;28;20649;-73
2023/12/21 07:39:43;;;;;;;0.20;0.20;;;;;;;6.76;100.00;97275.66;5074982;28;20316;-72
2023/12/21 07:42:09;;;;;;;0.30;0.20;;;;;;;6.75;100.00;97270.59;5074896;28;20212;-71
2023/12/21 07:44:37;;;;;;;0.20;0.20;;;;;;;6.75;100.00;97273.22;5075382;28;20228;-71
2023/12/21 07:47:03;;;;;;;1.43;0.20;;;;;;;6.71;100.00;97257.00;5075298;28;20205;-71
2023/12/21 07:49:29;;;;;;;0.73;0.20;;;;;;;6.71;100.00;97256.19;5075359;28;20229;-72
2023/12/21 07:51:56;;;;;;;0.20;0.20;;;;;;;6.69;100.00;97260.88;5074635;28;20706;-72
2023/12/21 07:54:22;;;;;;;0.20;0.20;;;;;;;6.71;100.00;97253.53;5075060;28;20211;-72
2023/12/21 07:56:48;;;;;;;0.40;0.23;;;;;;;6.72;100.00;97253.34;5075251;28;20206;-72
2023/12/21 07:59:15;;;;;;;0.43;0.30;;;;;;;6.73;100.00;97238.28;5075128;28;20236;-73
2023/12/21 08:01:41;;;;;;;0.20;0.20;;;;;;;6.74;100.00;97239.94;5074745;28;20686;-73
2023/12/21 08:04:09;;;;;;;0.63;0.20;;;;;;;6.73;100.00;97236.47;5075116;28;20230;-74
2023/12/21 08:06:35;;;;;;;1.00;0.40;;;;;;;6.71;100.00;97248.25;5075209;28;20208;-74
2023/12/21 08:09:02;;;;;;;0.30;0.30;;;;;;;6.74;100.00;97253.13;5074971;28;20281;-71
2023/12/21 08:11:28;;;;;;;0.50;0.30;;;;;;;6.78;100.00;97249.03;5074895;28;20207;-71
2023/12/21 08:13:54;;;;;;;0.20;0.20;;;;;;;6.88;100.00;97249.38;5074906;28;20204;-71
2023/12/21 08:16:21;;;;;;;1.07;0.30;;;;;;;6.87;100.00;97245.13;5075223;28;20200;-71
2023/12/21 08:18:47;;;;;;;0.27;0.27;;;;;;;6.89;100.00;97237.75;5074826;28;20205;-71
2023/12/21 08:21:13;;;;;;;0.20;0.20;;;;;;;6.92;100.00;97227.56;5074861;28;20208;-73
2023/12/21 08:23:40;;;;;;;0.20;0.20;;;;;;;6.94;100.00;97237.94;5074553;28;20694;-74
2023/12/21 08:26:07;;;;;;;0.20;0.20;;;;;;;6.96;100.00;97231.41;5074939;28;20571;-74
2023/12/21 08:28:33;;;;;;;0.20;0.20;;;;;;;6.94;100.00;97237.94;5074866;28;20211;-74
2023/12/21 08:31:00;;;;;;;1.13;0.20;;;;;;;7.02;100.00;97229.72;5074296;28;20584;-74
2023/12/21 08:33:26;;;;;;;0.20;0.20;;;;;;;7.00;100.00;97215.91;5074764;28;20231;-74
2023/12/21 08:35:53;;;;;;;0.30;0.30;;;;;;;7.01;100.00;97217.56;5074817;28;20206;-73
2023/12/21 08:38:20;;;;;;;1.03;0.30;;;;;;;7.03;100.00;97223.41;5074752;28;20204;-76
2023/12/21 08:40:47;;;;;;;0.20;0.20;;;;;;;7.01;100.00;97225.47;5074554;28;20224;-73
2023/12/21 08:43:14;;;;;;;0.47;0.23;;;;;;;7.08;100.00;97221.75;5074379;28;20204;-74
2023/12/21 08:45:40;;;;;;;0.27;0.20;;;;;;;7.06;100.00;97223.78;5073967;28;20224;-73
2023/12/21 08:48:07;;;;;;;0.20;0.20;;;;;;;7.11;100.00;97234.50;5073762;28;20212;-72
2023/12/21 08:50:34;;;;;;;0.20;0.20;;;;;;;7.16;100.00;97228.59;5074251;28;20590;-72
2023/12/21 08:53:00;;;;;;;0.57;0.20;;;;;;;7.15;100.00;97216.41;5074561;28;20201;-72
2023/12/21 08:55:28;;;;;;;0.97;0.20;;;;;;;7.11;100.00;97220.50;5074146;28;20558;-72
2023/12/21 08:57:56;;;;;;;0.60;0.30;;;;;;;7.15;100.00;97216.41;5074602;28;20227;-72
2023/12/21 09:00:22;;;;;;;0.20;0.20;;;;;;;7.14;100.00;97222.69;5074327;28;20543;-72
2023/12/21 09:02:49;;;;;;;0.20;0.20;;;;;;;7.14;100.00;97228.81;5073534;28;20210;-72
2023/12/21 09:05:15;;;;;;;0.43;0.40;;;;;;;7.15;100.00;97221.69;5074094;28;20316;-72
2023/12/21 09:07:41;;;;;;;0.20;0.20;;;;;;;7.21;100.00;97212.88;5073987;28;20200;-72
2023/12/21 09:10:08;;;;;;;0.20;0.20;;;;;;;7.20;100.00;97185.63;5074105;28;20228;-72
2023/12/21 09:12:35;;;;;;;0.30;0.30;;;;;;;7.25;100.00;97185.81;5073670;28;20671;-72
2023/12/21 09:15:01;;;;;;;0.20;0.20;;;;;;;7.24;100.00;97191.31;5073953;28;20198;-74
2023/12/21 09:17:28;;;;;;;0.40;0.37;;;;;;;7.26;100.00;97186.59;5073696;28;20209;-74
2023/12/21 09:19:54;;;;;;;0.20;0.20;;;;;;;7.33;100.00;97168.84;5073888;28;20221;-74
2023/12/21 09:22:21;;;;;;;0.30;0.30;;;;;;;7.36;100.00;97168.38;5074017;28;20566;-74
2023/12/21 09:24:47;;;;;;;0.33;0.30;;;;;;;7.38;100.00;97158.41;5073818;28;20229;-74
2023/12/21 09:27:14;;;;;;;0.20;0.20;;;;;;;7.37;100.00;97156.81;5073422;28;20217;-74
2023/12/21 09:29:42;;;;;;;0.23;0.23;;;;;;;7.42;100.00;97154.31;5073485;28;20278;-74
2023/12/21 09:32:08;;;;;;;0.30;0.30;;;;;;;7.43;100.00;97147.97;5073425;28;20694;-74
2023/12/21 09:34:35;;;;;;;0.30;0.30;;;;;;;7.47;100.00;97142.03;5073539;28;20201;-75
2023/12/21 09:37:04;;;;;;;0.37;0.30;;;;;;;7.50;100.00;97138.13;5073654;28;20208;-74
2023/12/21 09:39:30;;;;;;;0.50;0.50;;;;;;;7.49;100.00;97136.50;5073728;28;20232;-73
2023/12/21 09:42:00;;;;;;;0.93;0.40;;;;;;;7.51;100.00;97145.84;5073197;28;20222;-72
2023/12/21 09:44:28;;;;;;;0.40;0.40;;;;;;;7.54;100.00;97126.91;5073236;28;20283;-72
2023/12/21 09:46:55;;;;;;;0.30;0.30;;;;;;;7.52;100.00;97133.44;5073114;28;20687;-72
2023/12/21 09:49:22;;;;;;;0.33;0.33;;;;;;;7.55;100.00;97112.63;5072868;28;20233;-74
2023/12/21 09:51:50;;;;;;;0.20;0.20;;;;;;;7.56;100.00;97085.16;5073641;28;20201;-73
2023/12/21 09:54:18;;;;;;;0.20;0.20;;;;;;;7.61;100.00;97103.81;5073863;28;20296;-73
2023/12/21 09:56:47;;;;;;;0.43;0.30;;;;;;;7.70;100.00;97088.44;5073221;28;20214;-73
2023/12/21 09:59:13;;;;;;;0.53;0.37;;;;;;;7.72;100.00;97078.44;5073222;28;20233;-73
2023/12/21 10:01:39;;;;;;;0.30;0.30;;;;;;;7.73;100.00;97075.56;5073288;28;20200;-72
2023/12/21 10:04:07;;;;;;;0.30;0.30;;;;;;;7.74;100.00;97093.06;5073183;28;20217;-72
2023/12/21 10:06:34;;;;;;;0.27;0.27;;;;;;;7.81;100.00;97101.72;5073283;28;20200;-73
2023/12/21 10:09:04;;;;;;;0.20;0.20;;;;;;;7.77;100.00;97111.13;5072807;28;20228;-73
2023/12/21 10:11:30;;;;;;;1.33;0.30;;;;;;;7.79;100.00;97108.25;5072684;28;20201;-74
2023/12/21 10:13:57;;;;;;;0.47;0.30;;;;;;;7.80;100.00;97094.00;5073064;28;20219;-73
2023/12/21 10:16:27;;;;;;;0.43;0.30;;;;;;;7.77;100.00;97073.28;5074684;28;20204;-72
2023/12/21 10:18:53;;;;;;;1.63;0.30;;;;;;;7.81;100.00;97064.69;5073605;28;20208;-72
2023/12/21 10:21:22;;;;;;;0.17;0.17;;;;;;;7.81;100.00;97050.63;5072897;28;20298;-73
2023/12/21 10:23:49;;;;;;;0.20;0.20;;;;;;;7.82;100.00;97039.81;5072614;28;20674;-73
2023/12/21 10:26:16;;;;;;;0.23;0.23;;;;;;;7.86;100.00;97021.66;5072919;28;20228;-73
2023/12/21 10:28:43;;;;;;;0.20;0.20;;;;;;;7.87;100.00;97007.41;5072545;28;20204;-73
2023/12/21 10:31:10;;;;;;;0.43;0.30;;;;;;;7.89;100.00;97010.63;5072610;28;20205;-73
2023/12/21 10:33:37;;;;;;;0.23;0.23;;;;;;;7.93;100.00;97006.50;5074005;28;20204;-72
2023/12/21 10:36:03;;;;;;;0.20;0.20;;;;;;;7.97;100.00;96997.84;5072870;28;20200;-72
2023/12/21 10:38:30;;;;;;;0.30;0.30;;;;;;;8.06;100.00;96974.53;5072887;28;20208;-72
2023/12/21 10:40:58;;;;;;;0.20;0.20;;;;;;;7.99;100.00;96982.56;5072681;28;20239;-72
2023/12/21 10:43:24;;;;;;;0.30;0.30;;;;;;;8.04;100.00;96973.94;5072677;28;20210;-72
2023/12/21 10:45:52;;;;;;;0.40;0.40;;;;;;;8.03;100.00;96945.88;5072303;28;20562;-72
2023/12/21 10:48:22;;;;;;;0.20;0.20;;;;;;;8.04;100.00;96939.53;5054998;28;20222;-72
2023/12/21 10:50:52;;;;;;;0.20;0.20;;;;;;;8.07;100.00;96933.78;5072693;28;20261;-72
2023/12/21 10:53:25;;;;;;;0.60;0.20;;;;;;;8.06;100.00;96927.69;5072995;28;20205;-72
2023/12/21 10:55:54;;;;;;;0.20;0.20;;;;;;;8.08;100.00;96917.69;5072550;28;20253;-72
2023/12/21 10:58:22;;;;;;;0.30;0.30;;;;;;;8.14;100.00;96908.03;5072534;28;20208;-72
2023/12/21 11:00:50;;;;;;;0.33;0.33;;;;;;;8.13;100.00;96920.44;5072184;28;20239;-72
2023/12/21 11:03:19;;;;;;;0.20;0.20;;;;;;;8.17;100.00;96896.94;5072391;28;20615;-72
2023/12/21 11:05:46;;;;;;;0.33;0.30;;;;;;;8.17;100.00;96889.00;5072156;28;20232;-72
2023/12/21 11:08:12;;;;;;;0.20;0.20;;;;;;;8.15;100.00;96897.19;5072391;28;20205;-72
2023/12/21 11:10:39;;;;;;;0.40;0.30;;;;;;;8.14;100.00;96884.19;5073084;28;20223;-72
2023/12/21 11:13:05;;;;;;;0.20;0.20;;;;;;;8.13;100.00;96885.22;5072014;28;20205;-75
2023/12/21 11:15:32;;;;;;;0.77;0.20;;;;;;;8.16;100.00;96874.16;5073308;28;20201;-74
2023/12/21 11:18:10;;;;;;;1.40;0.30;;;;;;;8.17;100.00;96860.72;5072478;28;20204;-74
2023/12/21 11:20:43;;;;;;;0.30;0.30;;;;;;;8.20;100.00;96846.19;5054765;28;20698;-74
2023/12/21 11:23:10;;;;;;;0.30;0.30;;;;;;;8.28;100.00;96830.00;5054942;28;20189;-74
2023/12/21 11:25:36;;;;;;;0.87;0.20;;;;;;;8.28;100.00;96832.63;5073224;28;20319;-75
2023/12/21 11:28:04;;;;;;;0.20;0.20;;;;;;;8.30;100.00;96828.72;5075792;28;20535;-74
2023/12/21 11:30:32;;;;;;;0.40;0.30;;;;;;;8.33;100.00;96848.63;5075647;28;20581;-74